Terminal Aerodrome Forecast
Issued by NWS Tuscon, AZ

Home | Current Version | Previous Version | Text Only | Print | Product List | Glossary On
Versions: 1 2 3 4 5 6 7 8 9 10 11 12 13 14 15 16 17 18 19
000
FTUS45 KTWC 032300
TAFDUG
TAF
KDUG 032320Z 0400/0424 23012G20KT P6SM BKN040
     FM040200 20007KT P6SM FEW020 BKN050
     FM040900 VRB03KT P6SM VCSH SCT015 BKN040
     FM041700 29007KT P6SM SCT025 BKN050
     FM042200 30012KT P6SM SCT040=

USA.gov is the U.S. government's official web portal to all federal, state and local government web resources and services.